sensor_id;sensor_type;location;lat;lon;timestamp;pressure;altitude;pressure_sealevel;temperature;humidity
22649;BME280;11491;41.942;24.220;2022-09-29T00:00:49;89221.44;;;13.76;78.64
22649;BME280;11491;41.942;24.220;2022-09-29T00:03:16;89212.56;;;13.62;79.00
22649;BME280;11491;41.942;24.220;2022-09-29T00:05:47;89210.66;;;13.73;78.99
22649;BME280;11491;41.942;24.220;2022-09-29T00:08:15;89203.72;;;13.61;79.22
22649;BME280;11491;41.942;24.220;2022-09-29T00:10:43;89219.13;;;13.75;78.83
22649;BME280;11491;41.942;24.220;2022-09-29T00:13:10;89205.31;;;13.76;78.82
22649;BME280;11491;41.942;24.220;2022-09-29T00:15:38;89222.00;;;13.27;80.76
22649;BME280;11491;41.942;24.220;2022-09-29T00:18:05;89208.94;;;13.29;81.22
22649;BME280;11491;41.942;24.220;2022-09-29T00:20:33;89198.16;;;13.22;81.45
22649;BME280;11491;41.942;24.220;2022-09-29T00:23:00;89195.16;;;13.34;81.12
22649;BME280;11491;41.942;24.220;2022-09-29T00:25:28;89186.00;;;13.42;80.47
22649;BME280;11491;41.942;24.220;2022-09-29T00:27:55;89177.59;;;13.47;80.41
22649;BME280;11491;41.942;24.220;2022-09-29T00:30:21;89179.94;;;13.63;80.02
22649;BME280;11491;41.942;24.220;2022-09-29T00:32:49;89179.19;;;13.70;79.11
22649;BME280;11491;41.942;24.220;2022-09-29T00:35:16;89186.16;;;13.82;78.64
22649;BME280;11491;41.942;24.220;2022-09-29T00:37:43;89185.00;;;13.93;78.31
22649;BME280;11491;41.942;24.220;2022-09-29T00:40:10;89180.41;;;13.90;78.02
22649;BME280;11491;41.942;24.220;2022-09-29T00:42:37;89173.16;;;14.02;77.86
22649;BME280;11491;41.942;24.220;2022-09-29T00:45:16;89172.38;;;13.97;78.04
22649;BME280;11491;41.942;24.220;2022-09-29T00:47:47;89176.22;;;14.11;77.32
22649;BME280;11491;41.942;24.220;2022-09-29T00:50:22;89183.91;;;14.09;77.14
22649;BME280;11491;41.942;24.220;2022-09-29T00:52:54;89186.97;;;14.04;77.51
22649;BME280;11491;41.942;24.220;2022-09-29T00:55:25;89156.94;;;13.73;77.79
22649;BME280;11491;41.942;24.220;2022-09-29T00:57:57;89188.44;;;13.83;78.41
22649;BME280;11491;41.942;24.220;2022-09-29T01:00:26;89189.97;;;13.77;78.82
22649;BME280;11491;41.942;24.220;2022-09-29T01:02:56;89192.25;;;13.78;78.72
22649;BME280;11491;41.942;24.220;2022-09-29T01:05:31;89198.41;;;13.72;79.02
22649;BME280;11491;41.942;24.220;2022-09-29T01:08:01;89198.03;;;13.77;78.92
22649;BME280;11491;41.942;24.220;2022-09-29T01:10:33;89208.81;;;13.91;78.58
22649;BME280;11491;41.942;24.220;2022-09-29T01:13:01;89187.69;;;13.86;78.46
22649;BME280;11491;41.942;24.220;2022-09-29T01:15:28;89209.53;;;13.81;79.20
22649;BME280;11491;41.942;24.220;2022-09-29T01:17:55;89214.53;;;13.86;79.01
22649;BME280;11491;41.942;24.220;2022-09-29T01:20:23;89215.34;;;13.94;78.87
22649;BME280;11491;41.942;24.220;2022-09-29T01:23:22;89208.34;;;13.68;79.83
22649;BME280;11491;41.942;24.220;2022-09-29T01:26:19;89216.38;;;13.61;80.32
22649;BME280;11491;41.942;24.220;2022-09-29T01:29:13;89209.13;;;13.65;79.90
22649;BME280;11491;41.942;24.220;2022-09-29T01:31:54;89209.16;;;13.72;79.82
22649;BME280;11491;41.942;24.220;2022-09-29T01:34:29;89207.63;;;13.78;79.56
22649;BME280;11491;41.942;24.220;2022-09-29T01:37:07;89209.16;;;13.79;79.58
22649;BME280;11491;41.942;24.220;2022-09-29T01:39:40;89212.53;;;13.54;80.52
22649;BME280;11491;41.942;24.220;2022-09-29T01:42:12;89211.34;;;13.48;80.71
22649;BME280;11491;41.942;24.220;2022-09-29T01:44:43;89214.22;;;13.14;82.50
22649;BME280;11491;41.942;24.220;2022-09-29T01:47:17;89210.38;;;13.15;82.73
22649;BME280;11491;41.942;24.220;2022-09-29T01:49:58;89211.91;;;13.17;82.61
22649;BME280;11491;41.942;24.220;2022-09-29T01:52:28;89210.34;;;13.08;83.15
22649;BME280;11491;41.942;24.220;2022-09-29T01:54:59;89207.25;;;13.06;83.06
22649;BME280;11491;41.942;24.220;2022-09-29T01:57:30;89198.84;;;13.04;83.18
22649;BME280;11491;41.942;24.220;2022-09-29T02:00:03;89170.44;;;13.03;82.55
22649;BME280;11491;41.942;24.220;2022-09-29T02:02:37;89196.56;;;13.13;82.58
22649;BME280;11491;41.942;24.220;2022-09-29T02:05:09;89193.56;;;13.26;82.63
22649;BME280;11491;41.942;24.220;2022-09-29T02:07:41;89196.69;;;13.31;82.30
22649;BME280;11491;41.942;24.220;2022-09-29T02:10:11;89194.47;;;13.44;81.45
22649;BME280;11491;41.942;24.220;2022-09-29T02:12:41;89201.34;;;13.45;81.35
22649;BME280;11491;41.942;24.220;2022-09-29T02:15:12;89203.72;;;13.57;80.92
22649;BME280;11491;41.942;24.220;2022-09-29T02:17:42;89203.00;;;13.75;80.30
22649;BME280;11491;41.942;24.220;2022-09-29T02:20:11;89203.81;;;13.79;79.81
22649;BME280;11491;41.942;24.220;2022-09-29T02:22:39;89219.56;;;13.91;79.34
22649;BME280;11491;41.942;24.220;2022-09-29T02:25:08;89211.13;;;13.93;79.21
22649;BME280;11491;41.942;24.220;2022-09-29T02:27:37;89216.13;;;13.98;78.88
22649;BME280;11491;41.942;24.220;2022-09-29T02:30:05;89216.16;;;14.09;78.29
22649;BME280;11491;41.942;24.220;2022-09-29T02:32:32;89198.84;;;14.03;77.96
22649;BME280;11491;41.942;24.220;2022-09-29T02:35:02;89219.22;;;14.18;77.45
22649;BME280;11491;41.942;24.220;2022-09-29T02:37:45;89210.81;;;14.27;77.07
22649;BME280;11491;41.942;24.220;2022-09-29T02:40:24;89217.72;;;14.24;76.88
22649;BME280;11491;41.942;24.220;2022-09-29T02:46:02;89215.44;;;14.26;76.56
22649;BME280;11491;41.942;24.220;2022-09-29T02:51:39;89209.28;;;14.22;76.86
22649;BME280;11491;41.942;24.220;2022-09-29T02:54:21;89216.53;;;14.11;76.98
22649;BME280;11491;41.942;24.220;2022-09-29T02:56:57;89216.91;;;14.02;77.57
22649;BME280;11491;41.942;24.220;2022-09-29T02:59:34;89216.88;;;13.98;78.04
22649;BME280;11491;41.942;24.220;2022-09-29T03:02:02;89213.00;;;13.85;78.69
22649;BME280;11491;41.942;24.220;2022-09-29T03:04:29;89218.63;;;13.44;80.91
22649;BME280;11491;41.942;24.220;2022-09-29T03:06:57;89217.94;;;12.99;83.20
22649;BME280;11491;41.942;24.220;2022-09-29T03:09:24;89215.63;;;12.94;83.69
22649;BME280;11491;41.942;24.220;2022-09-29T03:11:51;89207.22;;;12.99;82.74
22649;BME280;11491;41.942;24.220;2022-09-29T03:14:18;89214.81;;;12.86;83.95
22649;BME280;11491;41.942;24.220;2022-09-29T03:16:44;89210.19;;;12.80;84.55
22649;BME280;11491;41.942;24.220;2022-09-29T03:19:11;89211.88;;;12.54;86.01
22649;BME280;11491;41.942;24.220;2022-09-29T03:21:38;89219.84;;;12.40;86.84
22649;BME280;11491;41.942;24.220;2022-09-29T03:24:06;89213.59;;;12.28;87.55
22649;BME280;11491;41.942;24.220;2022-09-29T03:26:33;89224.94;;;12.11;88.48
22649;BME280;11491;41.942;24.220;2022-09-29T03:29:00;89222.47;;;11.95;90.20
22649;BME280;11491;41.942;24.220;2022-09-29T03:31:27;89225.44;;;11.87;90.57
22649;BME280;11491;41.942;24.220;2022-09-29T03:33:54;89223.66;;;11.64;91.63
22649;BME280;11491;41.942;24.220;2022-09-29T03:36:20;89221.06;;;11.71;91.74
22649;BME280;11491;41.942;24.220;2022-09-29T03:38:47;89220.56;;;11.62;91.90
22649;BME280;11491;41.942;24.220;2022-09-29T03:41:15;89225.44;;;11.53;92.88
22649;BME280;11491;41.942;24.220;2022-09-29T03:43:42;89224.94;;;11.43;93.52
22649;BME280;11491;41.942;24.220;2022-09-29T03:46:09;89216.91;;;11.43;93.95
22649;BME280;11491;41.942;24.220;2022-09-29T03:48:35;89214.16;;;11.36;93.85
22649;BME280;11491;41.942;24.220;2022-09-29T03:51:04;89212.28;;;11.40;93.66
22649;BME280;11491;41.942;24.220;2022-09-29T03:53:33;89208.16;;;11.47;93.01
22649;BME280;11491;41.942;24.220;2022-09-29T03:56:00;89216.03;;;11.70;92.17
22649;BME280;11491;41.942;24.220;2022-09-29T03:58:28;89213.09;;;11.78;91.43
22649;BME280;11491;41.942;24.220;2022-09-29T04:00:55;89224.59;;;11.82;90.79
22649;BME280;11491;41.942;24.220;2022-09-29T04:03:22;89229.34;;;11.93;89.81
22649;BME280;11491;41.942;24.220;2022-09-29T04:05:49;89244.75;;;12.03;88.81
22649;BME280;11491;41.942;24.220;2022-09-29T04:08:16;89240.91;;;12.00;88.49
22649;BME280;11491;41.942;24.220;2022-09-29T04:10:45;89243.25;;;12.05;88.20
22649;BME280;11491;41.942;24.220;2022-09-29T04:13:12;89250.22;;;12.14;87.48
22649;BME280;11491;41.942;24.220;2022-09-29T04:15:40;89261.69;;;12.14;86.91
22649;BME280;11491;41.942;24.220;2022-09-29T04:18:07;89261.28;;;12.12;86.61
22649;BME280;11491;41.942;24.220;2022-09-29T04:20:34;89257.81;;;12.08;86.83
22649;BME280;11491;41.942;24.220;2022-09-29T04:23:00;89270.06;;;12.09;87.07
22649;BME280;11491;41.942;24.220;2022-09-29T04:25:27;89259.94;;;11.92;87.35
22649;BME280;11491;41.942;24.220;2022-09-29T04:27:54;89269.28;;;12.05;87.12
22649;BME280;11491;41.942;24.220;2022-09-29T04:30:20;89277.63;;;12.00;87.51
22649;BME280;11491;41.942;24.220;2022-09-29T04:32:48;89243.72;;;11.81;87.40
22649;BME280;11491;41.942;24.220;2022-09-29T04:35:15;89271.56;;;12.06;87.26
22649;BME280;11491;41.942;24.220;2022-09-29T04:37:42;89282.69;;;12.09;87.44
22649;BME280;11491;41.942;24.220;2022-09-29T04:40:09;89278.59;;;12.18;86.30
22649;BME280;11491;41.942;24.220;2022-09-29T04:42:36;89278.50;;;12.11;85.82
22649;BME280;11491;41.942;24.220;2022-09-29T04:45:03;89293.06;;;12.10;85.84
22649;BME280;11491;41.942;24.220;2022-09-29T04:47:30;89285.66;;;12.00;86.69
22649;BME280;11491;41.942;24.220;2022-09-29T04:49:58;89288.72;;;11.98;86.30
22649;BME280;11491;41.942;24.220;2022-09-29T04:52:25;89298.00;;;12.08;85.96
22649;BME280;11491;41.942;24.220;2022-09-29T04:54:52;89298.34;;;12.03;85.98
22649;BME280;11491;41.942;24.220;2022-09-29T04:57:18;89294.56;;;12.07;85.78
22649;BME280;11491;41.942;24.220;2022-09-29T04:59:45;89299.91;;;12.07;86.23
22649;BME280;11491;41.942;24.220;2022-09-29T05:02:12;89299.19;;;12.11;86.02
22649;BME280;11491;41.942;24.220;2022-09-29T05:04:38;89292.25;;;12.10;86.56
22649;BME280;11491;41.942;24.220;2022-09-29T05:07:06;89288.03;;;12.05;86.25
22649;BME280;11491;41.942;24.220;2022-09-29T05:09:33;89291.50;;;12.09;86.82
22649;BME280;11491;41.942;24.220;2022-09-29T05:12:01;89283.88;;;12.11;86.38
22649;BME280;11491;41.942;24.220;2022-09-29T05:14:27;89290.13;;;12.22;85.94
22649;BME280;11491;41.942;24.220;2022-09-29T05:16:55;89294.63;;;12.15;86.18
22649;BME280;11491;41.942;24.220;2022-09-29T05:19:22;89280.78;;;12.09;86.67
22649;BME280;11491;41.942;24.220;2022-09-29T05:21:49;89281.69;;;12.24;86.64
22649;BME280;11491;41.942;24.220;2022-09-29T05:24:17;89281.81;;;12.35;86.16
22649;BME280;11491;41.942;24.220;2022-09-29T05:26:43;89279.44;;;12.29;86.50
22649;BME280;11491;41.942;24.220;2022-09-29T05:29:10;89276.56;;;12.45;86.59
22649;BME280;11491;41.942;24.220;2022-09-29T05:31:37;89283.56;;;12.57;85.88
22649;BME280;11491;41.942;24.220;2022-09-29T05:34:04;89259.03;;;12.55;85.65
22649;BME280;11491;41.942;24.220;2022-09-29T05:36:30;89253.78;;;12.73;85.09
22649;BME280;11491;41.942;24.220;2022-09-29T05:38:57;89263.94;;;12.98;84.80
22649;BME280;11491;41.942;24.220;2022-09-29T05:41:28;89264.81;;;13.12;84.11
22649;BME280;11491;41.942;24.220;2022-09-29T05:43:55;89255.66;;;13.21;83.86
22649;BME280;11491;41.942;24.220;2022-09-29T05:46:23;89230.81;;;13.31;83.63
22649;BME280;11491;41.942;24.220;2022-09-29T05:48:50;89245.88;;;13.50;82.25
22649;BME280;11491;41.942;24.220;2022-09-29T05:51:19;89229.69;;;13.32;83.14
22649;BME280;11491;41.942;24.220;2022-09-29T05:53:46;89251.31;;;13.68;82.64
22649;BME280;11491;41.942;24.220;2022-09-29T05:56:14;89246.75;;;13.72;82.14
22649;BME280;11491;41.942;24.220;2022-09-29T05:58:42;89255.22;;;13.81;82.39
22649;BME280;11491;41.942;24.220;2022-09-29T06:01:11;89260.66;;;14.03;82.16
22649;BME280;11491;41.942;24.220;2022-09-29T06:03:38;89256.50;;;14.19;80.66
22649;BME280;11491;41.942;24.220;2022-09-29T06:06:07;89257.69;;;14.29;81.06
22649;BME280;11491;41.942;24.220;2022-09-29T06:08:34;89260.81;;;14.56;80.36
22649;BME280;11491;41.942;24.220;2022-09-29T06:11:03;89257.38;;;14.84;79.47
22649;BME280;11491;41.942;24.220;2022-09-29T06:13:30;89253.13;;;15.05;77.63
22649;BME280;11491;41.942;24.220;2022-09-29T06:15:58;89264.69;;;15.23;76.90
22649;BME280;11491;41.942;24.220;2022-09-29T06:18:25;89256.16;;;15.50;77.06
22649;BME280;11491;41.942;24.220;2022-09-29T06:20:52;89252.69;;;15.60;72.87
22649;BME280;11491;41.942;24.220;2022-09-29T06:23:18;89266.84;;;15.93;71.86
22649;BME280;11491;41.942;24.220;2022-09-29T06:25:45;89261.44;;;16.00;72.26
22649;BME280;11491;41.942;24.220;2022-09-29T06:28:12;89270.19;;;16.26;70.06
22649;BME280;11491;41.942;24.220;2022-09-29T06:30:39;89272.41;;;16.45;69.37
22649;BME280;11491;41.942;24.220;2022-09-29T06:33:07;89277.28;;;16.68;68.13
22649;BME280;11491;41.942;24.220;2022-09-29T06:35:33;89261.81;;;16.79;63.07
22649;BME280;11491;41.942;24.220;2022-09-29T06:38:17;89277.19;;;16.86;61.84
22649;BME280;11491;41.942;24.220;2022-09-29T06:40:44;89270.84;;;17.11;63.32
22649;BME280;11491;41.942;24.220;2022-09-29T06:43:11;89261.38;;;17.33;59.59
22649;BME280;11491;41.942;24.220;2022-09-29T06:45:38;89252.84;;;17.38;58.65
22649;BME280;11491;41.942;24.220;2022-09-29T06:48:04;89257.75;;;17.51;59.45
22649;BME280;11491;41.942;24.220;2022-09-29T06:50:35;89252.69;;;17.56;57.85
22649;BME280;11491;41.942;24.220;2022-09-29T06:53:02;89257.63;;;17.65;59.16
22649;BME280;11491;41.942;24.220;2022-09-29T06:55:29;89262.47;;;17.84;56.91
22649;BME280;11491;41.942;24.220;2022-09-29T06:57:55;89257.63;;;18.03;57.35
22649;BME280;11491;41.942;24.220;2022-09-29T07:00:22;89260.69;;;18.05;56.92
22649;BME280;11491;41.942;24.220;2022-09-29T07:02:49;89261.75;;;18.15;57.65
22649;BME280;11491;41.942;24.220;2022-09-29T07:05:16;89272.88;;;18.20;56.04
22649;BME280;11491;41.942;24.220;2022-09-29T07:07:46;89267.09;;;18.22;55.57
22649;BME280;11491;41.942;24.220;2022-09-29T07:10:13;89239.00;;;18.12;54.64
22649;BME280;11491;41.942;24.220;2022-09-29T07:12:41;89274.75;;;18.27;55.17
22649;BME280;11491;41.942;24.220;2022-09-29T07:15:09;89279.03;;;18.24;55.82
22649;BME280;11491;41.942;24.220;2022-09-29T07:17:36;89276.50;;;18.41;53.38
22649;BME280;11491;41.942;24.220;2022-09-29T07:20:03;89260.25;;;18.41;55.18
22649;BME280;11491;41.942;24.220;2022-09-29T07:22:30;89266.94;;;18.63;55.73
22649;BME280;11491;41.942;24.220;2022-09-29T07:24:58;89270.97;;;18.82;53.19
22649;BME280;11491;41.942;24.220;2022-09-29T07:27:24;89278.16;;;18.92;52.20
22649;BME280;11491;41.942;24.220;2022-09-29T07:29:51;89281.97;;;18.99;52.17
22649;BME280;11491;41.942;24.220;2022-09-29T07:32:18;89291.00;;;19.15;52.73
22649;BME280;11491;41.942;24.220;2022-09-29T07:34:45;89287.94;;;19.13;51.91
22649;BME280;11491;41.942;24.220;2022-09-29T07:37:12;89264.59;;;19.20;51.74
22649;BME280;11491;41.942;24.220;2022-09-29T07:39:39;89291.63;;;19.50;51.55
22649;BME280;11491;41.942;24.220;2022-09-29T07:42:07;89294.00;;;19.72;51.49
22649;BME280;11491;41.942;24.220;2022-09-29T07:44:33;89301.06;;;19.89;49.06
22649;BME280;11491;41.942;24.220;2022-09-29T07:47:00;89304.97;;;19.88;48.91
22649;BME280;11491;41.942;24.220;2022-09-29T07:49:27;89302.28;;;19.85;49.25
22649;BME280;11491;41.942;24.220;2022-09-29T07:51:54;89315.00;;;19.64;53.00
22649;BME280;11491;41.942;24.220;2022-09-29T07:54:21;89310.63;;;19.74;49.96
22649;BME280;11491;41.942;24.220;2022-09-29T07:56:48;89305.31;;;19.90;48.28
22649;BME280;11491;41.942;24.220;2022-09-29T07:59:16;89311.81;;;20.16;48.93
22649;BME280;11491;41.942;24.220;2022-09-29T08:01:43;89318.19;;;20.50;47.43
22649;BME280;11491;41.942;24.220;2022-09-29T08:04:09;89313.72;;;20.79;47.31
22649;BME280;11491;41.942;24.220;2022-09-29T08:06:36;89311.59;;;21.07;45.96
22649;BME280;11491;41.942;24.220;2022-09-29T08:09:04;89311.00;;;20.99;44.87
22649;BME280;11491;41.942;24.220;2022-09-29T08:11:32;89316.50;;;20.96;44.30
22649;BME280;11491;41.942;24.220;2022-09-29T08:14:00;89312.97;;;21.15;44.58
22649;BME280;11491;41.942;24.220;2022-09-29T08:16:28;89315.88;;;21.24;43.62
22649;BME280;11491;41.942;24.220;2022-09-29T08:18:55;89326.59;;;21.32;45.51
22649;BME280;11491;41.942;24.220;2022-09-29T08:21:22;89326.06;;;21.20;46.07
22649;BME280;11491;41.942;24.220;2022-09-29T08:23:49;89317.28;;;21.65;44.96
22649;BME280;11491;41.942;24.220;2022-09-29T08:26:17;89324.59;;;21.85;44.63
22649;BME280;11491;41.942;24.220;2022-09-29T08:28:45;89330.03;;;21.85;44.33
22649;BME280;11491;41.942;24.220;2022-09-29T08:31:14;89324.69;;;22.43;47.67
22649;BME280;11491;41.942;24.220;2022-09-29T08:33:46;89311.44;;;23.29;47.21
22649;BME280;11491;41.942;24.220;2022-09-29T08:36:15;89309.28;;;23.75;41.78
22649;BME280;11491;41.942;24.220;2022-09-29T08:38:42;89314.69;;;23.50;42.56
22649;BME280;11491;41.942;24.220;2022-09-29T08:41:24;89315.78;;;23.14;42.00
22649;BME280;11491;41.942;24.220;2022-09-29T08:43:58;89317.00;;;22.84;42.01
22649;BME280;11491;41.942;24.220;2022-09-29T08:46:28;89320.69;;;22.77;43.52
22649;BME280;11491;41.942;24.220;2022-09-29T08:49:01;89319.38;;;23.11;42.83
22649;BME280;11491;41.942;24.220;2022-09-29T08:51:30;89317.28;;;23.15;42.12
22649;BME280;11491;41.942;24.220;2022-09-29T08:54:05;89325.72;;;22.49;43.70
22649;BME280;11491;41.942;24.220;2022-09-29T08:56:34;89323.97;;;22.55;43.66
22649;BME280;11491;41.942;24.220;2022-09-29T08:59:01;89329.13;;;22.53;43.71
22649;BME280;11491;41.942;24.220;2022-09-29T09:01:33;89321.00;;;22.66;44.78
22649;BME280;11491;41.942;24.220;2022-09-29T09:04:24;89320.13;;;22.40;44.46
22649;BME280;11491;41.942;24.220;2022-09-29T09:07:06;89327.50;;;22.56;43.07
22649;BME280;11491;41.942;24.220;2022-09-29T09:09:45;89320.84;;;22.57;43.03
22649;BME280;11491;41.942;24.220;2022-09-29T09:12:40;89328.63;;;22.71;43.56
22649;BME280;11491;41.942;24.220;2022-09-29T09:15:25;89322.69;;;22.31;43.65
22649;BME280;11491;41.942;24.220;2022-09-29T09:21:00;89318.31;;;21.55;45.75
22649;BME280;11491;41.942;24.220;2022-09-29T09:23:38;89308.28;;;21.52;46.42
22649;BME280;11491;41.942;24.220;2022-09-29T09:26:10;89324.75;;;21.45;47.35
22649;BME280;11491;41.942;24.220;2022-09-29T09:28:41;89325.22;;;21.23;47.31
22649;BME280;11491;41.942;24.220;2022-09-29T09:31:12;89337.16;;;21.10;47.81
22649;BME280;11491;41.942;24.220;2022-09-29T09:33:42;89327.78;;;20.74;48.72
22649;BME280;11491;41.942;24.220;2022-09-29T09:36:15;89321.59;;;20.74;49.25
22649;BME280;11491;41.942;24.220;2022-09-29T09:38:49;89332.25;;;20.84;48.15
22649;BME280;11491;41.942;24.220;2022-09-29T09:41:21;89339.06;;;20.93;46.97
22649;BME280;11491;41.942;24.220;2022-09-29T09:43:52;89345.72;;;21.08;47.69
22649;BME280;11491;41.942;24.220;2022-09-29T09:46:25;89337.78;;;21.17;47.10
22649;BME280;11491;41.942;24.220;2022-09-29T09:49:00;89338.22;;;20.96;47.08
22649;BME280;11491;41.942;24.220;2022-09-29T09:51:48;89336.69;;;20.95;47.90
22649;BME280;11491;41.942;24.220;2022-09-29T09:54:26;89332.84;;;21.12;47.91
22649;BME280;11491;41.942;24.220;2022-09-29T09:57:35;89337.16;;;21.46;48.13
22649;BME280;11491;41.942;24.220;2022-09-29T10:00:09;89337.00;;;21.53;46.96
22649;BME280;11491;41.942;24.220;2022-09-29T10:02:42;89347.03;;;21.56;47.02
22649;BME280;11491;41.942;24.220;2022-09-29T10:05:10;89342.59;;;21.46;47.44
22649;BME280;11491;41.942;24.220;2022-09-29T10:07:39;89355.69;;;21.51;47.57
22649;BME280;11491;41.942;24.220;2022-09-29T10:10:15;89351.03;;;21.52;47.23
22649;BME280;11491;41.942;24.220;2022-09-29T10:12:43;89347.03;;;21.56;46.90
22649;BME280;11491;41.942;24.220;2022-09-29T10:15:22;89348.31;;;21.68;47.55
22649;BME280;11491;41.942;24.220;2022-09-29T10:18:00;89344.84;;;21.67;46.77
22649;BME280;11491;41.942;24.220;2022-09-29T10:20:32;89349.59;;;21.80;47.47
22649;BME280;11491;41.942;24.220;2022-09-29T10:23:23;89347.38;;;21.75;46.90
22649;BME280;11491;41.942;24.220;2022-09-29T10:25:53;89354.50;;;22.18;45.82
22649;BME280;11491;41.942;24.220;2022-09-29T10:28:21;89352.13;;;22.65;45.87
22649;BME280;11491;41.942;24.220;2022-09-29T10:30:48;89356.34;;;23.12;44.68
22649;BME280;11491;41.942;24.220;2022-09-29T10:33:17;89346.50;;;22.72;43.69
22649;BME280;11491;41.942;24.220;2022-09-29T10:35:47;89347.72;;;22.84;44.79
22649;BME280;11491;41.942;24.220;2022-09-29T10:38:17;89351.00;;;22.79;44.79
22649;BME280;11491;41.942;24.220;2022-09-29T10:40:57;89338.56;;;23.20;44.62
22649;BME280;11491;41.942;24.220;2022-09-29T10:43:30;89329.09;;;23.37;42.14
22649;BME280;11491;41.942;24.220;2022-09-29T10:45:57;89338.75;;;23.80;42.65
22649;BME280;11491;41.942;24.220;2022-09-29T10:48:25;89335.75;;;24.13;41.43
22649;BME280;11491;41.942;24.220;2022-09-29T10:50:54;89328.50;;;24.19;42.38
22649;BME280;11491;41.942;24.220;2022-09-29T10:53:31;89331.00;;;24.26;40.89
22649;BME280;11491;41.942;24.220;2022-09-29T10:56:04;89334.13;;;24.03;40.88
22649;BME280;11491;41.942;24.220;2022-09-29T10:58:34;89333.78;;;24.14;41.82
22649;BME280;11491;41.942;24.220;2022-09-29T11:01:05;89326.66;;;24.16;40.58
22649;BME280;11491;41.942;24.220;2022-09-29T11:03:34;89325.38;;;24.08;38.78
22649;BME280;11491;41.942;24.220;2022-09-29T11:06:05;89321.88;;;24.20;42.39
22649;BME280;11491;41.942;24.220;2022-09-29T11:08:32;89323.31;;;24.47;39.96
22649;BME280;11491;41.942;24.220;2022-09-29T11:11:21;89317.13;;;23.73;40.39
22649;BME280;11491;41.942;24.220;2022-09-29T11:13:49;89315.56;;;23.72;41.18
22649;BME280;11491;41.942;24.220;2022-09-29T11:16:20;89319.72;;;23.90;40.88
22649;BME280;11491;41.942;24.220;2022-09-29T11:18:51;89315.88;;;24.13;40.85
22649;BME280;11491;41.942;24.220;2022-09-29T11:24:32;89304.66;;;23.98;41.16
22649;BME280;11491;41.942;24.220;2022-09-29T11:27:11;89310.97;;;24.55;38.61
22649;BME280;11491;41.942;24.220;2022-09-29T11:29:45;89317.91;;;24.91;37.60
22649;BME280;11491;41.942;24.220;2022-09-29T11:32:34;89308.75;;;24.85;37.82
22649;BME280;11491;41.942;24.220;2022-09-29T11:35:17;89319.31;;;25.18;37.92
22649;BME280;11491;41.942;24.220;2022-09-29T11:37:59;89310.63;;;25.41;38.07
22649;BME280;11491;41.942;24.220;2022-09-29T11:40:33;89314.09;;;25.73;36.63
22649;BME280;11491;41.942;24.220;2022-09-29T11:43:20;89310.56;;;26.04;36.99
22649;BME280;11491;41.942;24.220;2022-09-29T11:45:58;89328.16;;;25.84;36.67
22649;BME280;11491;41.942;24.220;2022-09-29T11:48:43;89318.78;;;26.04;37.43
22649;BME280;11491;41.942;24.220;2022-09-29T11:51:23;89310.72;;;25.60;35.75
22649;BME280;11491;41.942;24.220;2022-09-29T11:54:12;89304.47;;;25.90;36.19
22649;BME280;11491;41.942;24.220;2022-09-29T11:56:50;89312.91;;;25.83;35.26
22649;BME280;11491;41.942;24.220;2022-09-29T11:59:36;89313.44;;;25.91;36.15
22649;BME280;11491;41.942;24.220;2022-09-29T12:05:18;89309.75;;;25.53;35.37
22649;BME280;11491;41.942;24.220;2022-09-29T12:07:54;89320.25;;;25.86;36.30
22649;BME280;11491;41.942;24.220;2022-09-29T12:13:11;89310.72;;;26.00;36.59
22649;BME280;11491;41.942;24.220;2022-09-29T12:15:50;89306.41;;;25.49;35.76
22649;BME280;11491;41.942;24.220;2022-09-29T12:18:21;89320.91;;;25.99;37.08
22649;BME280;11491;41.942;24.220;2022-09-29T12:20:52;89318.00;;;26.71;36.32
22649;BME280;11491;41.942;24.220;2022-09-29T12:23:22;89311.56;;;27.30;34.75
22649;BME280;11491;41.942;24.220;2022-09-29T12:25:56;89310.63;;;27.42;34.76
22649;BME280;11491;41.942;24.220;2022-09-29T12:28:29;89311.28;;;27.27;33.29
22649;BME280;11491;41.942;24.220;2022-09-29T12:31:02;89318.59;;;26.75;33.04
22649;BME280;11491;41.942;24.220;2022-09-29T12:33:33;89308.03;;;26.28;34.38
22649;BME280;11491;41.942;24.220;2022-09-29T12:39:24;89318.84;;;26.22;34.47
22649;BME280;11491;41.942;24.220;2022-09-29T12:41:57;89316.41;;;25.74;35.30
22649;BME280;11491;41.942;24.220;2022-09-29T12:44:31;89310.28;;;26.11;35.50
22649;BME280;11491;41.942;24.220;2022-09-29T12:47:12;89314.34;;;26.65;35.90
22649;BME280;11491;41.942;24.220;2022-09-29T12:49:51;89311.91;;;26.67;34.66
22649;BME280;11491;41.942;24.220;2022-09-29T12:52:25;89313.75;;;26.61;33.59
22649;BME280;11491;41.942;24.220;2022-09-29T12:54:57;89317.41;;;26.67;34.30
22649;BME280;11491;41.942;24.220;2022-09-29T12:57:29;89309.75;;;27.36;34.00
22649;BME280;11491;41.942;24.220;2022-09-29T13:00:01;89316.78;;;27.18;33.60
22649;BME280;11491;41.942;24.220;2022-09-29T13:08:53;89323.66;;;26.77;33.75
22649;BME280;11491;41.942;24.220;2022-09-29T13:11:43;89321.88;;;26.15;35.55
22649;BME280;11491;41.942;24.220;2022-09-29T13:14:37;89319.22;;;26.61;35.36
22649;BME280;11491;41.942;24.220;2022-09-29T13:17:21;89327.16;;;26.59;34.99
22649;BME280;11491;41.942;24.220;2022-09-29T13:20:32;89319.22;;;26.61;34.51
22649;BME280;11491;41.942;24.220;2022-09-29T13:23:14;89307.81;;;25.94;35.68
22649;BME280;11491;41.942;24.220;2022-09-29T13:25:56;89329.25;;;26.55;35.16
22649;BME280;11491;41.942;24.220;2022-09-29T13:28:30;89323.09;;;26.23;35.09
22649;BME280;11491;41.942;24.220;2022-09-29T13:31:01;89304.78;;;25.92;35.93
22649;BME280;11491;41.942;24.220;2022-09-29T13:33:30;89326.66;;;25.92;36.88
22649;BME280;11491;41.942;24.220;2022-09-29T13:36:00;89318.28;;;25.02;37.67
22649;BME280;11491;41.942;24.220;2022-09-29T13:38:29;89328.84;;;24.21;39.18